sensor_id;sensor_type;location;lat;lon;timestamp;P1;durP1;ratioP1;P2;durP2;ratioP2
33491;SDS011;20010;51.488;7.232;2023-06-26T00:01:28;10.27;;;9.55;;
33491;SDS011;20010;51.488;7.232;2023-06-26T00:03:58;10.75;;;10.15;;
33491;SDS011;20010;51.488;7.232;2023-06-26T00:06:25;11.07;;;10.27;;
33491;SDS011;20010;51.488;7.232;2023-06-26T00:08:52;10.88;;;10.20;;
33491;SDS011;20010;51.488;7.232;2023-06-26T00:11:20;10.40;;;9.70;;
33491;SDS011;20010;51.488;7.232;2023-06-26T00:13:49;10.63;;;9.93;;
33491;SDS011;20010;51.488;7.232;2023-06-26T00:16:16;11.52;;;10.48;;
33491;SDS011;20010;51.488;7.232;2023-06-26T00:18:43;10.23;;;9.60;;
33491;SDS011;20010;51.488;7.232;2023-06-26T00:21:09;10.50;;;9.90;;
33491;SDS011;20010;51.488;7.232;2023-06-26T00:23:36;10.43;;;9.73;;
33491;SDS011;20010;51.488;7.232;2023-06-26T00:26:05;10.93;;;10.23;;
33491;SDS011;20010;51.488;7.232;2023-06-26T00:28:32;10.25;;;9.55;;
33491;SDS011;20010;51.488;7.232;2023-06-26T00:30:59;10.45;;;9.68;;
33491;SDS011;20010;51.488;7.232;2023-06-26T00:33:25;9.68;;;8.95;;
33491;SDS011;20010;51.488;7.232;2023-06-26T00:35:52;9.88;;;9.18;;
33491;SDS011;20010;51.488;7.232;2023-06-26T00:38:19;9.95;;;9.35;;
33491;SDS011;20010;51.488;7.232;2023-06-26T00:40:45;11.00;;;10.07;;
33491;SDS011;20010;51.488;7.232;2023-06-26T00:43:12;10.48;;;9.75;;
33491;SDS011;20010;51.488;7.232;2023-06-26T00:45:38;10.10;;;9.30;;
33491;SDS011;20010;51.488;7.232;2023-06-26T00:48:10;10.05;;;9.40;;
33491;SDS011;20010;51.488;7.232;2023-06-26T00:50:41;9.88;;;9.27;;
33491;SDS011;20010;51.488;7.232;2023-06-26T00:53:09;10.65;;;9.98;;
33491;SDS011;20010;51.488;7.232;2023-06-26T00:55:35;10.40;;;9.80;;
33491;SDS011;20010;51.488;7.232;2023-06-26T00:58:02;11.35;;;10.45;;
33491;SDS011;20010;51.488;7.232;2023-06-26T01:00:29;10.77;;;9.88;;
33491;SDS011;20010;51.488;7.232;2023-06-26T01:02:56;10.80;;;9.80;;
33491;SDS011;20010;51.488;7.232;2023-06-26T01:05:26;10.30;;;9.60;;
33491;SDS011;20010;51.488;7.232;2023-06-26T01:07:53;11.10;;;10.40;;
33491;SDS011;20010;51.488;7.232;2023-06-26T01:10:21;10.57;;;9.88;;
33491;SDS011;20010;51.488;7.232;2023-06-26T01:12:47;10.45;;;9.85;;
33491;SDS011;20010;51.488;7.232;2023-06-26T01:15:14;10.93;;;10.20;;
33491;SDS011;20010;51.488;7.232;2023-06-26T01:17:41;11.13;;;10.35;;
33491;SDS011;20010;51.488;7.232;2023-06-26T01:28:13;10.52;;;9.93;;
33491;SDS011;20010;51.488;7.232;2023-06-26T01:30:42;11.50;;;10.73;;
33491;SDS011;20010;51.488;7.232;2023-06-26T01:33:09;10.55;;;9.93;;
33491;SDS011;20010;51.488;7.232;2023-06-26T01:35:37;10.35;;;9.65;;
33491;SDS011;20010;51.488;7.232;2023-06-26T01:38:13;10.70;;;10.00;;
33491;SDS011;20010;51.488;7.232;2023-06-26T01:40:42;11.02;;;10.32;;
33491;SDS011;20010;51.488;7.232;2023-06-26T01:43:13;11.05;;;10.35;;
33491;SDS011;20010;51.488;7.232;2023-06-26T01:45:45;10.88;;;10.18;;
33491;SDS011;20010;51.488;7.232;2023-06-26T01:48:12;11.05;;;10.25;;
33491;SDS011;20010;51.488;7.232;2023-06-26T01:50:39;11.65;;;10.80;;
33491;SDS011;20010;51.488;7.232;2023-06-26T01:58:19;10.55;;;9.75;;
33491;SDS011;20010;51.488;7.232;2023-06-26T02:00:49;11.63;;;10.93;;
33491;SDS011;20010;51.488;7.232;2023-06-26T02:03:15;10.93;;;10.02;;
33491;SDS011;20010;51.488;7.232;2023-06-26T02:05:42;11.10;;;10.40;;
33491;SDS011;20010;51.488;7.232;2023-06-26T02:08:09;10.85;;;10.25;;
33491;SDS011;20010;51.488;7.232;2023-06-26T02:10:36;11.13;;;10.40;;
33491;SDS011;20010;51.488;7.232;2023-06-26T02:13:03;11.10;;;10.30;;
33491;SDS011;20010;51.488;7.232;2023-06-26T02:15:30;10.43;;;9.82;;
33491;SDS011;20010;51.488;7.232;2023-06-26T02:17:56;11.18;;;10.48;;
33491;SDS011;20010;51.488;7.232;2023-06-26T02:20:23;10.68;;;9.98;;
33491;SDS011;20010;51.488;7.232;2023-06-26T02:22:50;10.63;;;9.93;;
33491;SDS011;20010;51.488;7.232;2023-06-26T02:25:17;10.73;;;10.13;;
33491;SDS011;20010;51.488;7.232;2023-06-26T02:27:44;11.70;;;10.80;;
33491;SDS011;20010;51.488;7.232;2023-06-26T02:30:10;11.55;;;10.82;;
33491;SDS011;20010;51.488;7.232;2023-06-26T02:32:37;11.73;;;10.93;;
33491;SDS011;20010;51.488;7.232;2023-06-26T02:35:04;11.20;;;10.40;;
33491;SDS011;20010;51.488;7.232;2023-06-26T02:37:31;11.30;;;10.60;;
33491;SDS011;20010;51.488;7.232;2023-06-26T02:39:57;11.18;;;10.48;;
33491;SDS011;20010;51.488;7.232;2023-06-26T02:42:24;11.57;;;10.88;;
33491;SDS011;20010;51.488;7.232;2023-06-26T02:44:51;10.70;;;9.90;;
33491;SDS011;20010;51.488;7.232;2023-06-26T02:47:18;11.82;;;11.02;;
33491;SDS011;20010;51.488;7.232;2023-06-26T02:49:44;10.90;;;10.20;;
33491;SDS011;20010;51.488;7.232;2023-06-26T02:52:11;11.13;;;10.43;;
33491;SDS011;20010;51.488;7.232;2023-06-26T02:54:37;10.73;;;10.02;;
33491;SDS011;20010;51.488;7.232;2023-06-26T02:57:04;10.88;;;10.15;;
33491;SDS011;20010;51.488;7.232;2023-06-26T02:59:31;11.80;;;10.90;;
33491;SDS011;20010;51.488;7.232;2023-06-26T03:01:58;12.15;;;11.30;;
33491;SDS011;20010;51.488;7.232;2023-06-26T03:04:26;10.70;;;10.00;;
33491;SDS011;20010;51.488;7.232;2023-06-26T03:06:53;10.93;;;10.32;;
33491;SDS011;20010;51.488;7.232;2023-06-26T03:09:20;11.10;;;10.40;;
33491;SDS011;20010;51.488;7.232;2023-06-26T03:11:46;10.43;;;9.63;;
33491;SDS011;20010;51.488;7.232;2023-06-26T03:14:13;10.52;;;9.82;;
33491;SDS011;20010;51.488;7.232;2023-06-26T03:16:40;11.55;;;10.77;;
33491;SDS011;20010;51.488;7.232;2023-06-26T03:19:06;10.95;;;10.25;;
33491;SDS011;20010;51.488;7.232;2023-06-26T03:21:33;10.60;;;9.85;;
33491;SDS011;20010;51.488;7.232;2023-06-26T03:24:00;11.50;;;10.70;;
33491;SDS011;20010;51.488;7.232;2023-06-26T03:26:26;12.27;;;11.32;;
33491;SDS011;20010;51.488;7.232;2023-06-26T03:28:54;12.20;;;11.30;;
33491;SDS011;20010;51.488;7.232;2023-06-26T03:31:21;11.27;;;10.32;;
33491;SDS011;20010;51.488;7.232;2023-06-26T03:33:48;11.40;;;10.57;;
33491;SDS011;20010;51.488;7.232;2023-06-26T03:36:14;11.95;;;11.05;;
33491;SDS011;20010;51.488;7.232;2023-06-26T03:38:41;11.85;;;11.05;;
33491;SDS011;20010;51.488;7.232;2023-06-26T03:41:07;11.30;;;10.60;;
33491;SDS011;20010;51.488;7.232;2023-06-26T03:43:34;11.45;;;10.80;;
33491;SDS011;20010;51.488;7.232;2023-06-26T03:46:01;10.77;;;9.98;;
33491;SDS011;20010;51.488;7.232;2023-06-26T03:48:27;11.75;;;10.95;;
33491;SDS011;20010;51.488;7.232;2023-06-26T03:50:54;10.73;;;9.93;;
33491;SDS011;20010;51.488;7.232;2023-06-26T03:53:20;12.02;;;11.10;;
33491;SDS011;20010;51.488;7.232;2023-06-26T03:55:47;10.95;;;10.25;;
33491;SDS011;20010;51.488;7.232;2023-06-26T03:58:14;11.25;;;10.55;;
33491;SDS011;20010;51.488;7.232;2023-06-26T04:00:40;10.82;;;10.07;;
33491;SDS011;20010;51.488;7.232;2023-06-26T04:03:07;10.90;;;10.00;;
33491;SDS011;20010;51.488;7.232;2023-06-26T04:05:34;11.13;;;10.15;;
33491;SDS011;20010;51.488;7.232;2023-06-26T04:08:03;10.90;;;10.07;;
33491;SDS011;20010;51.488;7.232;2023-06-26T04:10:30;11.23;;;10.30;;
33491;SDS011;20010;51.488;7.232;2023-06-26T04:12:57;10.50;;;9.80;;
33491;SDS011;20010;51.488;7.232;2023-06-26T04:15:23;11.23;;;10.40;;
33491;SDS011;20010;51.488;7.232;2023-06-26T04:17:50;11.45;;;10.48;;
33491;SDS011;20010;51.488;7.232;2023-06-26T04:20:16;11.25;;;10.55;;
33491;SDS011;20010;51.488;7.232;2023-06-26T04:22:43;11.27;;;10.45;;
33491;SDS011;20010;51.488;7.232;2023-06-26T04:25:10;10.98;;;10.18;;
33491;SDS011;20010;51.488;7.232;2023-06-26T04:27:38;10.95;;;10.13;;
33491;SDS011;20010;51.488;7.232;2023-06-26T04:30:07;10.70;;;9.82;;
33491;SDS011;20010;51.488;7.232;2023-06-26T04:32:35;12.50;;;11.30;;
33491;SDS011;20010;51.488;7.232;2023-06-26T04:35:02;10.55;;;9.75;;
33491;SDS011;20010;51.488;7.232;2023-06-26T04:37:29;10.88;;;10.10;;
33491;SDS011;20010;51.488;7.232;2023-06-26T04:39:56;11.63;;;10.82;;
33491;SDS011;20010;51.488;7.232;2023-06-26T04:42:23;13.52;;;12.32;;
33491;SDS011;20010;51.488;7.232;2023-06-26T04:44:49;12.10;;;11.18;;
33491;SDS011;20010;51.488;7.232;2023-06-26T04:47:16;11.90;;;11.00;;
33491;SDS011;20010;51.488;7.232;2023-06-26T04:49:43;10.80;;;10.10;;
33491;SDS011;20010;51.488;7.232;2023-06-26T04:52:12;11.20;;;10.30;;
33491;SDS011;20010;51.488;7.232;2023-06-26T04:54:39;11.50;;;10.50;;
33491;SDS011;20010;51.488;7.232;2023-06-26T04:57:06;11.43;;;10.63;;
33491;SDS011;20010;51.488;7.232;2023-06-26T04:59:33;11.70;;;10.82;;
33491;SDS011;20010;51.488;7.232;2023-06-26T05:01:59;11.73;;;10.82;;
33491;SDS011;20010;51.488;7.232;2023-06-26T05:04:26;12.07;;;11.18;;
33491;SDS011;20010;51.488;7.232;2023-06-26T05:06:52;10.38;;;9.43;;
33491;SDS011;20010;51.488;7.232;2023-06-26T05:09:19;12.15;;;10.95;;
33491;SDS011;20010;51.488;7.232;2023-06-26T05:11:46;11.85;;;10.57;;
33491;SDS011;20010;51.488;7.232;2023-06-26T05:14:13;10.95;;;9.88;;
33491;SDS011;20010;51.488;7.232;2023-06-26T05:16:40;12.00;;;10.88;;
33491;SDS011;20010;51.488;7.232;2023-06-26T05:19:06;11.27;;;10.38;;
33491;SDS011;20010;51.488;7.232;2023-06-26T05:21:33;11.82;;;10.77;;
33491;SDS011;20010;51.488;7.232;2023-06-26T05:24:01;11.23;;;10.43;;
33491;SDS011;20010;51.488;7.232;2023-06-26T05:26:29;10.98;;;10.18;;
33491;SDS011;20010;51.488;7.232;2023-06-26T05:28:56;11.95;;;10.85;;
33491;SDS011;20010;51.488;7.232;2023-06-26T05:31:22;12.77;;;11.60;;
33491;SDS011;20010;51.488;7.232;2023-06-26T05:33:49;13.40;;;11.20;;
33491;SDS011;20010;51.488;7.232;2023-06-26T05:36:17;13.45;;;12.20;;
33491;SDS011;20010;51.488;7.232;2023-06-26T05:38:45;11.23;;;10.32;;
33491;SDS011;20010;51.488;7.232;2023-06-26T05:41:12;11.35;;;10.45;;
33491;SDS011;20010;51.488;7.232;2023-06-26T05:43:39;11.70;;;10.70;;
33491;SDS011;20010;51.488;7.232;2023-06-26T05:46:06;11.48;;;10.65;;
33491;SDS011;20010;51.488;7.232;2023-06-26T05:48:33;11.40;;;10.60;;
33491;SDS011;20010;51.488;7.232;2023-06-26T05:51:00;11.90;;;11.02;;
33491;SDS011;20010;51.488;7.232;2023-06-26T05:53:27;12.00;;;10.73;;
33491;SDS011;20010;51.488;7.232;2023-06-26T05:55:53;12.43;;;11.52;;
33491;SDS011;20010;51.488;7.232;2023-06-26T05:58:21;13.70;;;12.27;;
33491;SDS011;20010;51.488;7.232;2023-06-26T06:00:50;15.15;;;11.77;;
33491;SDS011;20010;51.488;7.232;2023-06-26T06:03:17;12.90;;;11.70;;
33491;SDS011;20010;51.488;7.232;2023-06-26T06:05:43;12.85;;;11.35;;
33491;SDS011;20010;51.488;7.232;2023-06-26T06:08:10;12.98;;;11.88;;
33491;SDS011;20010;51.488;7.232;2023-06-26T06:10:37;14.02;;;12.75;;
33491;SDS011;20010;51.488;7.232;2023-06-26T06:13:04;12.23;;;10.95;;
33491;SDS011;20010;51.488;7.232;2023-06-26T06:15:31;12.10;;;10.88;;
33491;SDS011;20010;51.488;7.232;2023-06-26T06:17:58;11.20;;;10.27;;
33491;SDS011;20010;51.488;7.232;2023-06-26T06:20:24;11.38;;;10.10;;
33491;SDS011;20010;51.488;7.232;2023-06-26T06:22:51;10.65;;;9.65;;
33491;SDS011;20010;51.488;7.232;2023-06-26T06:27:48;12.05;;;9.55;;
33491;SDS011;20010;51.488;7.232;2023-06-26T06:30:16;11.43;;;10.40;;
33491;SDS011;20010;51.488;7.232;2023-06-26T06:32:54;12.07;;;11.07;;
33491;SDS011;20010;51.488;7.232;2023-06-26T06:35:21;11.95;;;10.77;;
33491;SDS011;20010;51.488;7.232;2023-06-26T06:37:52;11.30;;;10.38;;
33491;SDS011;20010;51.488;7.232;2023-06-26T06:40:19;13.75;;;10.57;;
33491;SDS011;20010;51.488;7.232;2023-06-26T06:42:48;11.10;;;9.98;;
33491;SDS011;20010;51.488;7.232;2023-06-26T06:45:14;11.55;;;10.55;;
33491;SDS011;20010;51.488;7.232;2023-06-26T06:47:41;12.52;;;10.38;;
33491;SDS011;20010;51.488;7.232;2023-06-26T06:50:08;10.80;;;9.90;;
33491;SDS011;20010;51.488;7.232;2023-06-26T06:52:38;11.80;;;9.98;;
33491;SDS011;20010;51.488;7.232;2023-06-26T06:55:07;12.10;;;10.90;;
33491;SDS011;20010;51.488;7.232;2023-06-26T06:57:38;11.32;;;10.15;;
33491;SDS011;20010;51.488;7.232;2023-06-26T07:00:09;12.75;;;10.88;;
33491;SDS011;20010;51.488;7.232;2023-06-26T07:02:38;16.33;;;10.55;;
33491;SDS011;20010;51.488;7.232;2023-06-26T07:05:05;11.70;;;10.50;;
33491;SDS011;20010;51.488;7.232;2023-06-26T07:07:32;11.43;;;10.13;;
33491;SDS011;20010;51.488;7.232;2023-06-26T07:10:00;12.00;;;9.70;;
33491;SDS011;20010;51.488;7.232;2023-06-26T07:12:28;11.82;;;10.75;;
33491;SDS011;20010;51.488;7.232;2023-06-26T07:14:55;13.02;;;11.38;;
33491;SDS011;20010;51.488;7.232;2023-06-26T07:17:22;11.77;;;10.68;;
33491;SDS011;20010;51.488;7.232;2023-06-26T07:19:49;13.02;;;11.15;;
33491;SDS011;20010;51.488;7.232;2023-06-26T07:22:16;12.27;;;11.07;;
33491;SDS011;20010;51.488;7.232;2023-06-26T07:24:43;12.88;;;11.32;;
33491;SDS011;20010;51.488;7.232;2023-06-26T07:27:09;12.77;;;11.57;;
33491;SDS011;20010;51.488;7.232;2023-06-26T07:29:36;12.23;;;11.13;;
33491;SDS011;20010;51.488;7.232;2023-06-26T07:32:03;13.27;;;11.05;;
33491;SDS011;20010;51.488;7.232;2023-06-26T07:34:30;11.75;;;10.55;;
33491;SDS011;20010;51.488;7.232;2023-06-26T07:36:56;12.18;;;11.05;;
33491;SDS011;20010;51.488;7.232;2023-06-26T07:39:23;12.02;;;10.73;;
33491;SDS011;20010;51.488;7.232;2023-06-26T07:41:51;12.13;;;10.77;;
33491;SDS011;20010;51.488;7.232;2023-06-26T07:44:18;13.00;;;10.90;;
33491;SDS011;20010;51.488;7.232;2023-06-26T07:46:45;12.13;;;10.77;;
33491;SDS011;20010;51.488;7.232;2023-06-26T07:49:12;13.88;;;10.60;;
33491;SDS011;20010;51.488;7.232;2023-06-26T07:51:39;13.68;;;11.27;;
33491;SDS011;20010;51.488;7.232;2023-06-26T07:54:06;16.75;;;10.65;;
33491;SDS011;20010;51.488;7.232;2023-06-26T07:56:52;12.07;;;10.63;;
33491;SDS011;20010;51.488;7.232;2023-06-26T07:59:22;12.82;;;10.60;;
33491;SDS011;20010;51.488;7.232;2023-06-26T08:01:50;13.02;;;11.68;;
33491;SDS011;20010;51.488;7.232;2023-06-26T08:04:18;14.13;;;10.50;;
33491;SDS011;20010;51.488;7.232;2023-06-26T08:06:49;11.60;;;9.68;;
33491;SDS011;20010;51.488;7.232;2023-06-26T08:09:21;13.60;;;11.50;;
33491;SDS011;20010;51.488;7.232;2023-06-26T08:11:49;12.50;;;11.40;;
33491;SDS011;20010;51.488;7.232;2023-06-26T08:14:18;12.98;;;11.68;;
33491;SDS011;20010;51.488;7.232;2023-06-26T08:16:45;12.97;;;11.63;;
33491;SDS011;20010;51.488;7.232;2023-06-26T08:19:12;13.43;;;11.00;;
33491;SDS011;20010;51.488;7.232;2023-06-26T08:21:40;12.90;;;11.25;;
33491;SDS011;20010;51.488;7.232;2023-06-26T08:24:07;13.98;;;12.27;;
33491;SDS011;20010;51.488;7.232;2023-06-26T08:26:34;14.77;;;13.38;;
33491;SDS011;20010;51.488;7.232;2023-06-26T08:29:01;15.10;;;12.63;;
33491;SDS011;20010;51.488;7.232;2023-06-26T08:31:37;14.55;;;12.00;;
33491;SDS011;20010;51.488;7.232;2023-06-26T08:34:05;16.23;;;14.48;;
33491;SDS011;20010;51.488;7.232;2023-06-26T08:36:33;16.38;;;14.88;;
33491;SDS011;20010;51.488;7.232;2023-06-26T08:38:59;15.88;;;14.40;;
33491;SDS011;20010;51.488;7.232;2023-06-26T08:41:26;19.58;;;17.42;;
33491;SDS011;20010;51.488;7.232;2023-06-26T08:43:53;17.73;;;16.08;;
33491;SDS011;20010;51.488;7.232;2023-06-26T08:46:20;24.05;;;16.65;;
33491;SDS011;20010;51.488;7.232;2023-06-26T08:48:56;18.85;;;15.13;;
33491;SDS011;20010;51.488;7.232;2023-06-26T08:51:28;20.08;;;18.08;;
33491;SDS011;20010;51.488;7.232;2023-06-26T08:53:56;20.67;;;18.65;;
33491;SDS011;20010;51.488;7.232;2023-06-26T08:56:32;19.88;;;17.95;;
33491;SDS011;20010;51.488;7.232;2023-06-26T08:59:09;18.83;;;17.02;;
33491;SDS011;20010;51.488;7.232;2023-06-26T09:01:37;19.85;;;18.02;;
33491;SDS011;20010;51.488;7.232;2023-06-26T09:04:04;17.95;;;16.17;;
33491;SDS011;20010;51.488;7.232;2023-06-26T09:06:31;17.05;;;14.85;;
33491;SDS011;20010;51.488;7.232;2023-06-26T09:08:57;16.40;;;13.90;;
33491;SDS011;20010;51.488;7.232;2023-06-26T09:11:28;17.08;;;15.45;;
33491;SDS011;20010;51.488;7.232;2023-06-26T09:14:00;16.15;;;13.90;;
33491;SDS011;20010;51.488;7.232;2023-06-26T09:19:11;16.35;;;13.52;;
33491;SDS011;20010;51.488;7.232;2023-06-26T09:21:41;13.38;;;12.05;;
33491;SDS011;20010;51.488;7.232;2023-06-26T09:24:11;12.15;;;10.95;;
33491;SDS011;20010;51.488;7.232;2023-06-26T09:26:43;11.55;;;10.43;;
33491;SDS011;20010;51.488;7.232;2023-06-26T09:29:10;11.63;;;10.23;;
33491;SDS011;20010;51.488;7.232;2023-06-26T09:31:40;16.35;;;10.95;;
33491;SDS011;20010;51.488;7.232;2023-06-26T09:34:12;11.57;;;9.80;;
33491;SDS011;20010;51.488;7.232;2023-06-26T09:36:42;15.43;;;10.65;;
33491;SDS011;20010;51.488;7.232;2023-06-26T09:39:17;12.82;;;9.82;;
33491;SDS011;20010;51.488;7.232;2023-06-26T09:41:46;12.57;;;9.90;;
33491;SDS011;20010;51.488;7.232;2023-06-26T09:46:51;9.27;;;8.52;;
33491;SDS011;20010;51.488;7.232;2023-06-26T09:49:26;11.75;;;10.65;;
33491;SDS011;20010;51.488;7.232;2023-06-26T09:51:56;10.85;;;9.95;;
33491;SDS011;20010;51.488;7.232;2023-06-26T09:54:24;16.10;;;10.77;;
33491;SDS011;20010;51.488;7.232;2023-06-26T09:57:06;15.65;;;10.35;;
33491;SDS011;20010;51.488;7.232;2023-06-26T09:59:40;13.88;;;9.40;;
33491;SDS011;20010;51.488;7.232;2023-06-26T10:02:14;11.77;;;10.60;;
33491;SDS011;20010;51.488;7.232;2023-06-26T10:04:43;11.45;;;9.32;;
33491;SDS011;20010;51.488;7.232;2023-06-26T10:07:11;10.70;;;9.63;;
33491;SDS011;20010;51.488;7.232;2023-06-26T10:09:47;10.77;;;9.77;;
33491;SDS011;20010;51.488;7.232;2023-06-26T10:12:29;12.00;;;9.80;;
33491;SDS011;20010;51.488;7.232;2023-06-26T10:15:05;10.75;;;9.75;;
33491;SDS011;20010;51.488;7.232;2023-06-26T10:17:35;10.93;;;9.82;;
33491;SDS011;20010;51.488;7.232;2023-06-26T10:20:05;11.95;;;10.43;;
33491;SDS011;20010;51.488;7.232;2023-06-26T10:22:46;11.80;;;9.95;;
33491;SDS011;20010;51.488;7.232;2023-06-26T10:25:17;11.27;;;10.25;;
33491;SDS011;20010;51.488;7.232;2023-06-26T10:28:01;9.80;;;8.65;;
33491;SDS011;20010;51.488;7.232;2023-06-26T10:30:31;10.13;;;8.73;;
33491;SDS011;20010;51.488;7.232;2023-06-26T10:33:05;11.55;;;7.25;;
33491;SDS011;20010;51.488;7.232;2023-06-26T10:35:43;8.20;;;7.50;;
33491;SDS011;20010;51.488;7.232;2023-06-26T10:40:52;8.20;;;7.50;;
33491;SDS011;20010;51.488;7.232;2023-06-26T10:43:29;9.80;;;9.00;;
33491;SDS011;20010;51.488;7.232;2023-06-26T10:46:00;9.27;;;8.52;;
33491;SDS011;20010;51.488;7.232;2023-06-26T10:48:28;11.25;;;8.48;;
33491;SDS011;20010;51.488;7.232;2023-06-26T10:50:57;8.90;;;8.18;;
33491;SDS011;20010;51.488;7.232;2023-06-26T10:53:26;8.75;;;7.63;;
33491;SDS011;20010;51.488;7.232;2023-06-26T10:56:05;12.32;;;10.98;;
33491;SDS011;20010;51.488;7.232;2023-06-26T11:03:46;8.55;;;7.18;;
33491;SDS011;20010;51.488;7.232;2023-06-26T11:06:31;8.25;;;7.63;;
33491;SDS011;20010;51.488;7.232;2023-06-26T11:09:08;7.97;;;7.28;;
33491;SDS011;20010;51.488;7.232;2023-06-26T11:14:27;8.43;;;7.63;;
33491;SDS011;20010;51.488;7.232;2023-06-26T11:17:02;8.25;;;7.45;;
33491;SDS011;20010;51.488;7.232;2023-06-26T11:19:35;10.68;;;8.80;;
33491;SDS011;20010;51.488;7.232;2023-06-26T11:22:05;8.80;;;8.02;;
33491;SDS011;20010;51.488;7.232;2023-06-26T11:24:35;8.88;;;7.97;;
33491;SDS011;20010;51.488;7.232;2023-06-26T11:27:06;8.90;;;8.13;;
33491;SDS011;20010;51.488;7.232;2023-06-26T11:29:36;9.40;;;8.02;;
33491;SDS011;20010;51.488;7.232;2023-06-26T11:32:04;10.30;;;7.93;;
33491;SDS011;20010;51.488;7.232;2023-06-26T11:34:37;9.10;;;8.27;;
33491;SDS011;20010;51.488;7.232;2023-06-26T11:37:16;7.93;;;7.22;;
33491;SDS011;20010;51.488;7.232;2023-06-26T11:39:50;9.15;;;8.32;;
33491;SDS011;20010;51.488;7.232;2023-06-26T11:42:19;7.88;;;7.13;;
33491;SDS011;20010;51.488;7.232;2023-06-26T11:44:48;8.15;;;7.50;;
33491;SDS011;20010;51.488;7.232;2023-06-26T11:47:18;10.35;;;7.15;;
33491;SDS011;20010;51.488;7.232;2023-06-26T11:49:48;7.30;;;6.65;;
33491;SDS011;20010;51.488;7.232;2023-06-26T11:52:16;7.20;;;6.80;;
33491;SDS011;20010;51.488;7.232;2023-06-26T11:54:45;6.72;;;6.32;;
33491;SDS011;20010;51.488;7.232;2023-06-26T11:57:15;6.80;;;5.90;;
33491;SDS011;20010;51.488;7.232;2023-06-26T11:59:44;7.28;;;5.90;;
33491;SDS011;20010;51.488;7.232;2023-06-26T12:02:14;8.90;;;6.45;;
33491;SDS011;20010;51.488;7.232;2023-06-26T12:04:46;6.05;;;5.80;;
33491;SDS011;20010;51.488;7.232;2023-06-26T12:07:14;9.90;;;6.43;;
33491;SDS011;20010;51.488;7.232;2023-06-26T12:09:46;7.03;;;6.40;;
33491;SDS011;20010;51.488;7.232;2023-06-26T12:12:16;6.28;;;5.78;;
33491;SDS011;20010;51.488;7.232;2023-06-26T12:14:46;6.20;;;5.80;;
33491;SDS011;20010;51.488;7.232;2023-06-26T12:17:14;6.25;;;5.82;;
33491;SDS011;20010;51.488;7.232;2023-06-26T12:19:49;6.32;;;5.72;;
33491;SDS011;20010;51.488;7.232;2023-06-26T12:22:21;7.60;;;6.40;;
33491;SDS011;20010;51.488;7.232;2023-06-26T12:25:08;7.32;;;6.72;;
33491;SDS011;20010;51.488;7.232;2023-06-26T12:27:39;6.40;;;6.00;;
33491;SDS011;20010;51.488;7.232;2023-06-26T12:30:09;6.50;;;6.10;;
33491;SDS011;20010;51.488;7.232;2023-06-26T12:32:45;7.45;;;6.70;;
33491;SDS011;20010;51.488;7.232;2023-06-26T12:35:16;7.40;;;6.78;;
33491;SDS011;20010;51.488;7.232;2023-06-26T12:37:44;6.75;;;6.35;;
33491;SDS011;20010;51.488;7.232;2023-06-26T12:40:18;7.05;;;6.40;;
33491;SDS011;20010;51.488;7.232;2023-06-26T12:42:50;6.55;;;5.93;;
33491;SDS011;20010;51.488;7.232;2023-06-26T12:45:21;6.00;;;5.60;;
33491;SDS011;20010;51.488;7.232;2023-06-26T12:48:12;9.13;;;6.25;;
33491;SDS011;20010;51.488;7.232;2023-06-26T12:50:45;7.07;;;5.82;;
33491;SDS011;20010;51.488;7.232;2023-06-26T12:53:13;6.47;;;5.88;;
33491;SDS011;20010;51.488;7.232;2023-06-26T12:55:45;7.53;;;6.78;;
33491;SDS011;20010;51.488;7.232;2023-06-26T12:58:17;6.65;;;6.00;;
33491;SDS011;20010;51.488;7.232;2023-06-26T13:00:47;6.60;;;6.03;;
33491;SDS011;20010;51.488;7.232;2023-06-26T13:03:14;6.63;;;6.32;;
33491;SDS011;20010;51.488;7.232;2023-06-26T13:05:43;6.55;;;6.10;;
33491;SDS011;20010;51.488;7.232;2023-06-26T13:08:16;6.60;;;6.30;;
33491;SDS011;20010;51.488;7.232;2023-06-26T13:10:45;6.55;;;6.20;;
33491;SDS011;20010;51.488;7.232;2023-06-26T13:13:14;6.60;;;6.10;;
33491;SDS011;20010;51.488;7.232;2023-06-26T13:15:44;6.40;;;5.90;;
33491;SDS011;20010;51.488;7.232;2023-06-26T13:18:12;6.90;;;6.32;;
33491;SDS011;20010;51.488;7.232;2023-06-26T13:20:39;5.53;;;5.28;;
33491;SDS011;20010;51.488;7.232;2023-06-26T13:23:15;6.85;;;6.28;;
33491;SDS011;20010;51.488;7.232;2023-06-26T13:25:49;7.45;;;6.85;;
33491;SDS011;20010;51.488;7.232;2023-06-26T13:28:17;6.90;;;6.50;;
33491;SDS011;20010;51.488;7.232;2023-06-26T13:30:48;6.35;;;6.05;;
33491;SDS011;20010;51.488;7.232;2023-06-26T13:33:16;6.53;;;6.10;;
33491;SDS011;20010;51.488;7.232;2023-06-26T13:35:46;7.47;;;6.78;;
33491;SDS011;20010;51.488;7.232;2023-06-26T13:38:13;7.45;;;6.90;;
33491;SDS011;20010;51.488;7.232;2023-06-26T13:40:42;9.65;;;7.15;;
33491;SDS011;20010;51.488;7.232;2023-06-26T13:43:14;7.03;;;6.63;;
33491;SDS011;20010;51.488;7.232;2023-06-26T13:45:43;6.82;;;6.50;;
33491;SDS011;20010;51.488;7.232;2023-06-26T13:48:21;6.88;;;6.30;;
33491;SDS011;20010;51.488;7.232;2023-06-26T13:50:52;7.22;;;6.72;;
33491;SDS011;20010;51.488;7.232;2023-06-26T13:53:27;7.32;;;6.82;;
33491;SDS011;20010;51.488;7.232;2023-06-26T13:55:59;7.63;;;6.97;;
33491;SDS011;20010;51.488;7.232;2023-06-26T13:58:34;6.85;;;6.38;;
33491;SDS011;20010;51.488;7.232;2023-06-26T14:01:03;7.43;;;6.80;;
33491;SDS011;20010;51.488;7.232;2023-06-26T14:03:38;6.75;;;6.20;;
33491;SDS011;20010;51.488;7.232;2023-06-26T14:06:08;7.20;;;6.80;;
33491;SDS011;20010;51.488;7.232;2023-06-26T14:08:39;7.00;;;6.57;;
33491;SDS011;20010;51.488;7.232;2023-06-26T14:11:10;6.90;;;6.55;;
33491;SDS011;20010;51.488;7.232;2023-06-26T14:13:37;7.28;;;6.70;;
33491;SDS011;20010;51.488;7.232;2023-06-26T14:16:06;6.78;;;6.38;;
33491;SDS011;20010;51.488;7.232;2023-06-26T14:18:40;6.88;;;6.35;;
33491;SDS011;20010;51.488;7.232;2023-06-26T14:21:09;6.78;;;6.40;;
33491;SDS011;20010;51.488;7.232;2023-06-26T14:23:40;7.53;;;7.00;;
33491;SDS011;20010;51.488;7.232;2023-06-26T14:26:08;6.78;;;6.28;;
33491;SDS011;20010;51.488;7.232;2023-06-26T14:28:40;6.37;;;6.10;;
33491;SDS011;20010;51.488;7.232;2023-06-26T14:31:12;6.50;;;5.95;;
33491;SDS011;20010;51.488;7.232;2023-06-26T14:33:41;6.68;;;6.18;;
33491;SDS011;20010;51.488;7.232;2023-06-26T14:36:08;6.80;;;6.28;;
33491;SDS011;20010;51.488;7.232;2023-06-26T14:38:37;6.50;;;6.10;;
33491;SDS011;20010;51.488;7.232;2023-06-26T14:41:08;6.45;;;6.05;;
33491;SDS011;20010;51.488;7.232;2023-06-26T14:43:38;6.47;;;5.88;;
33491;SDS011;20010;51.488;7.232;2023-06-26T14:46:10;8.13;;;6.80;;
33491;SDS011;20010;51.488;7.232;2023-06-26T14:48:39;6.45;;;5.97;;
33491;SDS011;20010;51.488;7.232;2023-06-26T14:51:08;6.95;;;6.50;;
33491;SDS011;20010;51.488;7.232;2023-06-26T14:53:36;6.65;;;6.35;;
33491;SDS011;20010;51.488;7.232;2023-06-26T14:56:12;7.03;;;5.75;;
33491;SDS011;20010;51.488;7.232;2023-06-26T14:58:39;6.50;;;6.00;;
33491;SDS011;20010;51.488;7.232;2023-06-26T15:01:07;5.80;;;5.40;;
33491;SDS011;20010;51.488;7.232;2023-06-26T15:03:36;6.30;;;5.90;;
33491;SDS011;20010;51.488;7.232;2023-06-26T15:06:04;6.63;;;6.22;;
33491;SDS011;20010;51.488;7.232;2023-06-26T15:08:45;6.07;;;5.68;;
33491;SDS011;20010;51.488;7.232;2023-06-26T15:11:13;5.70;;;5.30;;
33491;SDS011;20010;51.488;7.232;2023-06-26T15:13:45;6.00;;;5.60;;